Time;durP1;ratioP1;P1;durP2;ratioP2;P2;SDS_P1;SDS_P2;PMS_P1;PMS_P2;Temp;Humidity;BMP_temperature;BMP_pressure;BME280_temperature;BME280_humidity;BME280_pressure;Samples;Min_cycle;Max_cycle;Signal;HPM_P1;HPM_P2
2021/07/25 00:00:58;;;;;;;30.00;18.70;;;16.80;99.90;;;;;;5080211;28;19923;-59
2021/07/25 00:03:24;;;;;;;;;;;16.70;99.90;;;;;;5080611;28;20039;-59
2021/07/25 00:05:49;;;;;;;31.50;18.98;;;16.70;99.90;;;;;;5074428;28;20312;-60
2021/07/25 00:08:15;;;;;;;;;;;16.80;99.90;;;;;;5086091;28;20058;-60
2021/07/25 00:10:42;;;;;;;30.25;18.75;;;16.80;99.90;;;;;;5086572;28;19916;-59
2021/07/25 00:13:08;;;;;;;30.98;17.50;;;16.80;99.90;;;;;;5079725;28;20037;-64
2021/07/25 00:15:35;;;;;;;;;;;16.80;99.90;;;;;;5079875;28;20044;-60
2021/07/25 00:18:00;;;;;;;;;;;16.80;99.90;;;;;;5072629;28;19916;-59
2021/07/25 00:20:26;;;;;;;25.08;15.65;;;16.80;99.90;;;;;;5067434;28;19928;-59
2021/07/25 00:22:51;;;;;;;;;;;16.80;99.90;;;;;;5067027;28;20032;-58
2021/07/25 00:25:19;;;;;;;26.85;17.45;;;16.70;99.90;;;;;;5067414;28;20372;-59
2021/07/25 00:27:52;;;;;;;23.10;15.25;;;16.60;99.90;;;;;;5067311;28;20036;-59
2021/07/25 00:30:18;;;;;;;25.08;15.13;;;16.60;99.90;;;;;;5065843;28;20159;-60
2021/07/25 00:32:45;;;;;;;28.02;16.05;;;16.60;99.90;;;;;;5066690;28;20037;-60
2021/07/25 00:35:11;;;;;;;26.25;17.15;;;16.60;99.90;;;;;;5066550;28;20043;-58
2021/07/25 00:37:36;;;;;;;;;;;16.50;99.90;;;;;;5067411;28;20036;-60
2021/07/25 00:40:03;;;;;;;26.92;16.27;;;16.40;99.90;;;;;;5067095;28;20461;-59
2021/07/25 00:42:38;;;;;;;32.13;16.10;;;16.40;99.90;;;;;;5067026;28;20043;-59
2021/07/25 00:45:06;;;;;;;27.15;16.23;;;16.40;99.90;;;;;;5065403;28;20055;-58
2021/07/25 00:47:33;;;;;;;18.95;13.02;;;16.40;99.90;;;;;;5066358;28;20056;-57
2021/07/25 00:49:58;;;;;;;23.02;13.90;;;16.40;99.90;;;;;;5067044;28;20124;-59
2021/07/25 00:52:24;;;;;;;;;;;16.30;99.90;;;;;;5066759;28;20436;-60
2021/07/25 00:54:50;;;;;;;17.30;11.18;;;16.40;99.90;;;;;;5066737;28;19916;-61
2021/07/25 00:57:15;;;;;;;21.08;11.30;;;16.30;99.90;;;;;;5066396;28;20048;-59
2021/07/25 00:59:41;;;;;;;;;;;16.30;99.90;;;;;;5064866;28;20068;-58
2021/07/25 01:02:07;;;;;;;16.85;10.15;;;16.30;99.90;;;;;;5065953;28;19917;-60
2021/07/25 01:04:41;;;;;;;;;;;16.20;99.90;;;;;;5065921;28;20416;-58
2021/07/25 01:07:33;;;;;;;14.85;8.98;;;16.00;99.90;;;;;;5064829;28;19931;-58
2021/07/25 01:10:06;;;;;;;15.23;8.57;;;16.00;99.90;;;;;;5066543;28;20078;-58
2021/07/25 01:12:42;;;;;;;15.70;8.55;;;16.00;99.90;;;;;;5065089;28;20040;-58
2021/07/25 01:15:10;;;;;;;18.60;7.75;;;16.00;99.90;;;;;;5065442;28;20566;-60
2021/07/25 01:17:36;;;;;;;17.48;8.40;;;15.90;99.90;;;;;;5066281;28;20052;-61
2021/07/25 01:20:09;;;;;;;13.25;8.25;;;15.80;99.90;;;;;;5065889;28;20048;-57
2021/07/25 01:22:44;;;;;;;12.10;7.53;;;15.80;99.90;;;;;;5065438;28;20858;-59
2021/07/25 01:25:12;;;;;;;14.90;7.80;;;15.70;99.90;;;;;;5066047;28;20045;-58
2021/07/25 01:28:04;;;;;;;11.48;7.15;;;15.70;99.90;;;;;;5065246;28;20084;-59
2021/07/25 01:30:34;;;;;;;15.57;8.20;;;15.70;99.90;;;;;;5064737;28;20492;-60
2021/07/25 01:33:03;;;;;;;14.82;7.95;;;15.70;99.90;;;;;;5065593;28;20467;-58
2021/07/25 01:35:31;;;;;;;10.27;6.35;;;15.70;99.90;;;;;;5066051;28;20105;-58
2021/07/25 01:37:57;;;;;;;14.65;7.82;;;15.70;99.90;;;;;;5066312;28;20098;-59
2021/07/25 01:40:24;;;;;;;;;;;15.70;99.90;;;;;;5066861;28;20041;-59
2021/07/25 01:42:56;;;;;;;12.55;7.07;;;15.70;99.90;;;;;;5064959;28;20277;-59
2021/07/25 01:45:22;;;;;;;10.18;6.80;;;15.70;99.90;;;;;;5065666;28;20048;-60
2021/07/25 01:47:48;;;;;;;12.43;7.50;;;15.70;99.90;;;;;;5061645;28;20105;-60
2021/07/25 01:50:13;;;;;;;;;;;15.80;99.90;;;;;;5067166;28;20036;-60
2021/07/25 01:52:39;;;;;;;14.55;8.20;;;15.70;99.90;;;;;;5066086;28;19916;-61
2021/07/25 01:55:05;;;;;;;;;;;15.70;99.90;;;;;;5068125;28;20127;-59
2021/07/25 01:57:31;;;;;;;14.60;7.68;;;15.70;99.90;;;;;;5065131;28;20567;-60
2021/07/25 01:59:57;;;;;;;;;;;15.70;99.90;;;;;;5066839;28;20044;-60
2021/07/25 02:02:22;;;;;;;13.57;7.97;;;15.70;99.90;;;;;;5065388;28;19921;-58
2021/07/25 02:04:48;;;;;;;;;;;15.50;99.90;;;;;;5059841;28;20043;-57
2021/07/25 02:07:14;;;;;;;12.63;7.63;;;15.40;99.90;;;;;;5064919;28;19995;-61
2021/07/25 02:09:39;;;;;;;;;;;15.30;99.90;;;;;;5064665;28;20076;-55
2021/07/25 02:12:09;;;;;;;11.18;7.43;;;15.30;99.90;;;;;;5064988;28;19965;-58
2021/07/25 02:14:36;;;;;;;13.40;8.27;;;15.30;99.90;;;;;;5067687;28;20060;-59
2021/07/25 02:17:03;;;;;;;14.48;8.57;;;15.30;99.90;;;;;;5064914;28;20049;-59
2021/07/25 02:19:29;;;;;;;11.35;8.20;;;15.20;99.90;;;;;;5065593;28;20094;-57
2021/07/25 02:21:55;;;;;;;;;;;15.20;99.90;;;;;;5065341;28;20042;-58
2021/07/25 02:24:21;;;;;;;13.95;8.00;;;15.20;99.90;;;;;;5065097;28;19920;-57
2021/07/25 02:26:47;;;;;;;14.10;9.02;;;15.10;99.90;;;;;;5064910;28;20121;-60
2021/07/25 02:29:13;;;;;;;13.30;8.65;;;15.10;99.90;;;;;;5065540;28;20056;-57
2021/07/25 02:31:39;;;;;;;;;;;15.10;99.90;;;;;;5065539;28;20293;-60
2021/07/25 02:34:04;;;;;;;13.00;7.47;;;15.10;99.90;;;;;;5064780;28;19919;-57
2021/07/25 02:36:30;;;;;;;;;;;15.10;99.90;;;;;;5065321;28;20144;-56
2021/07/25 02:38:55;;;;;;;15.57;8.60;;;15.20;99.90;;;;;;5064804;28;19917;-59
2021/07/25 02:41:21;;;;;;;;;;;15.20;99.90;;;;;;5064303;28;20063;-60
2021/07/25 02:43:46;;;;;;;12.40;7.60;;;15.30;99.90;;;;;;5064952;28;19955;-60
2021/07/25 02:46:12;;;;;;;;;;;15.20;99.90;;;;;;5065636;28;20404;-60
2021/07/25 02:48:38;;;;;;;15.15;8.48;;;15.10;99.90;;;;;;5064367;28;20678;-59
2021/07/25 02:51:03;;;;;;;;;;;15.10;99.90;;;;;;5065944;28;20068;-60
2021/07/25 02:53:29;;;;;;;13.02;8.70;;;15.10;99.90;;;;;;5065260;28;20004;-60
2021/07/25 02:55:54;;;;;;;;;;;15.00;99.90;;;;;;5064722;28;20043;-60
2021/07/25 02:58:20;;;;;;;18.77;8.35;;;15.00;99.90;;;;;;5064843;28;19920;-61
2021/07/25 03:00:46;;;;;;;;;;;14.90;99.90;;;;;;5064919;28;20090;-59
2021/07/25 03:03:12;;;;;;;18.05;10.20;;;14.90;99.90;;;;;;5065393;28;19958;-60
2021/07/25 03:05:37;;;;;;;;;;;14.90;99.90;;;;;;5060378;28;20051;-59
2021/07/25 03:08:03;;;;;;;16.48;9.23;;;14.80;99.90;;;;;;5066477;28;19955;-60
2021/07/25 03:10:29;;;;;;;17.13;10.32;;;14.80;99.90;;;;;;5065019;28;20115;-57
2021/07/25 03:12:54;;;;;;;;;;;14.80;99.90;;;;;;5065610;28;20132;-58
2021/07/25 03:15:20;;;;;;;15.02;9.38;;;14.80;99.90;;;;;;5063235;28;19928;-60
2021/07/25 03:17:46;;;;;;;;;;;14.90;99.90;;;;;;5065771;28;20048;-61
2021/07/25 03:20:12;;;;;;;13.85;8.70;;;14.90;99.90;;;;;;5065126;28;20380;-60
2021/07/25 03:22:38;;;;;;;;;;;14.80;99.90;;;;;;5065224;28;20798;-60
2021/07/25 03:25:05;;;;;;;22.60;9.50;;;14.80;99.90;;;;;;5063986;28;19917;-59
2021/07/25 03:27:31;;;;;;;17.75;9.52;;;14.80;99.90;;;;;;5062861;28;20122;-56
2021/07/25 03:29:56;;;;;;;;;;;14.70;99.90;;;;;;5065583;28;20052;-63
2021/07/25 03:32:22;;;;;;;16.27;10.15;;;14.70;99.90;;;;;;5065232;28;19986;-60
2021/07/25 03:34:47;;;;;;;;;;;14.60;99.90;;;;;;5065048;28;20043;-61
2021/07/25 03:37:14;;;;;;;17.58;10.00;;;14.50;99.90;;;;;;5065618;28;20424;-61
2021/07/25 03:39:43;;;;;;;16.60;8.82;;;14.50;99.90;;;;;;5064748;28;20099;-62
2021/07/25 03:42:08;;;;;;;17.42;9.70;;;14.50;99.90;;;;;;5064939;28;20051;-61
2021/07/25 03:44:34;;;;;;;;;;;14.60;99.90;;;;;;5064763;28;20692;-59
2021/07/25 03:47:01;;;;;;;13.60;9.07;;;14.50;99.90;;;;;;5064385;28;19970;-61
2021/07/25 03:49:27;;;;;;;17.05;10.15;;;14.50;99.90;;;;;;5064227;28;20080;-61
2021/07/25 03:51:52;;;;;;;;;;;14.40;99.90;;;;;;5064809;28;20079;-62
2021/07/25 03:54:18;;;;;;;13.82;9.35;;;14.50;99.90;;;;;;5066920;28;19920;-60
2021/07/25 03:56:43;;;;;;;;;;;14.40;99.90;;;;;;5069761;28;20040;-61
2021/07/25 03:59:09;;;;;;;17.67;9.93;;;14.50;99.90;;;;;;5068268;28;19912;-61
2021/07/25 04:01:34;;;;;;;;;;;14.70;99.90;;;;;;5067467;28;20036;-62
2021/07/25 04:04:00;;;;;;;17.23;9.05;;;14.70;99.90;;;;;;5068571;28;19920;-62
2021/07/25 04:06:26;;;;;;;;;;;14.80;99.90;;;;;;5067635;28;20033;-60
2021/07/25 04:08:51;;;;;;;17.77;11.18;;;15.00;99.90;;;;;;5064184;28;19917;-61
2021/07/25 04:11:20;;;;;;;;;;;15.10;99.90;;;;;;5067550;28;20048;-62
2021/07/25 04:13:47;;;;;;;15.40;10.23;;;15.20;99.90;;;;;;5068460;28;19920;-61
2021/07/25 04:16:12;;;;;;;14.18;9.68;;;15.30;99.90;;;;;;5067173;28;20040;-61
2021/07/25 04:18:38;;;;;;;;;;;15.20;99.90;;;;;;5070858;28;20451;-61
2021/07/25 04:21:03;;;;;;;17.15;10.57;;;15.20;99.90;;;;;;5067959;28;20011;-63
2021/07/25 04:23:29;;;;;;;;;;;15.20;99.90;;;;;;5067531;28;20687;-62
2021/07/25 04:25:55;;;;;;;16.70;9.77;;;15.20;99.90;;;;;;5068691;28;19931;-61
2021/07/25 04:28:20;;;;;;;;;;;15.30;99.90;;;;;;5063981;28;20450;-60
2021/07/25 04:30:46;;;;;;;17.67;10.15;;;15.30;99.90;;;;;;5068093;28;19923;-63
2021/07/25 04:33:14;;;;;;;;;;;15.30;99.90;;;;;;5068046;28;20093;-60
2021/07/25 04:35:40;;;;;;;13.82;9.38;;;15.30;99.90;;;;;;5068091;28;20017;-60
2021/07/25 04:38:06;;;;;;;24.60;14.65;;;15.20;99.90;;;;;;5068201;28;20049;-60
2021/07/25 04:40:32;;;;;;;;;;;15.30;99.90;;;;;;5067852;28;20037;-61
2021/07/25 04:42:59;;;;;;;17.08;9.43;;;15.30;99.90;;;;;;5067352;28;19916;-62
2021/07/25 04:45:32;;;;;;;14.35;9.98;;;15.40;99.90;;;;;;5066773;28;20040;-60
2021/07/25 04:48:07;;;;;;;18.17;10.52;;;15.50;99.90;;;;;;5066961;28;20045;-62
2021/07/25 04:50:41;;;;;;;16.00;9.95;;;15.50;99.90;;;;;;5067727;28;20047;-60
2021/07/25 04:53:22;;;;;;;26.42;10.38;;;15.50;99.90;;;;;;5068361;28;20044;-61
2021/07/25 04:55:59;;;;;;;14.68;9.52;;;15.70;99.90;;;;;;5067601;28;20125;-62
2021/07/25 04:58:35;;;;;;;19.98;10.13;;;15.90;99.90;;;;;;5063213;28;20500;-60
2021/07/25 05:01:03;;;;;;;15.82;10.65;;;16.00;99.90;;;;;;5073947;28;20098;-61
2021/07/25 05:03:33;;;;;;;17.70;9.55;;;16.00;99.90;;;;;;5067703;28;20524;-61
2021/07/25 05:05:59;;;;;;;15.95;10.43;;;16.00;99.90;;;;;;5067384;28;20045;-60
2021/07/25 05:08:25;;;;;;;;;;;16.00;99.90;;;;;;5067836;28;20048;-62
2021/07/25 05:11:05;;;;;;;16.45;11.18;;;16.10;99.90;;;;;;5066718;28;19916;-63
2021/07/25 05:13:35;;;;;;;15.65;9.75;;;16.30;99.90;;;;;;5066755;28;20573;-61
2021/07/25 05:16:05;;;;;;;12.93;8.90;;;16.70;99.90;;;;;;5066494;28;20045;-58
2021/07/25 05:18:36;;;;;;;13.60;9.05;;;16.90;99.90;;;;;;5066970;28;20787;-60
2021/07/25 05:21:08;;;;;;;14.50;9.85;;;16.90;99.90;;;;;;5066901;28;20037;-61
2021/07/25 05:23:41;;;;;;;22.73;10.00;;;17.00;99.90;;;;;;5062367;28;20041;-66
2021/07/25 05:26:10;;;;;;;14.18;9.15;;;17.10;99.90;;;;;;5065024;28;20439;-62
2021/07/25 05:28:37;;;;;;;13.98;8.43;;;17.40;99.90;;;;;;5066347;28;20795;-62
2021/07/25 05:31:06;;;;;;;13.75;9.05;;;18.40;99.90;;;;;;5062399;28;20033;-63
2021/07/25 05:33:32;;;;;;;15.02;8.18;;;18.90;99.90;;;;;;5065932;28;20173;-61
2021/07/25 05:35:58;;;;;;;;;;;18.70;99.90;;;;;;5066385;28;20144;-62
2021/07/25 05:38:23;;;;;;;13.23;7.78;;;18.50;99.90;;;;;;5065709;28;19955;-64
2021/07/25 05:40:49;;;;;;;12.45;8.38;;;18.40;99.90;;;;;;5067260;28;20125;-62
2021/07/25 05:43:15;;;;;;;;;;;18.20;99.90;;;;;;5065664;28;20113;-62
2021/07/25 05:45:41;;;;;;;14.48;7.68;;;18.10;99.90;;;;;;5064921;28;20376;-62
2021/07/25 05:48:06;;;;;;;;;;;18.20;99.90;;;;;;5067235;28;20060;-63
2021/07/25 05:50:32;;;;;;;11.20;7.93;;;18.10;99.90;;;;;;5067401;28;20331;-63
2021/07/25 05:52:59;;;;;;;10.48;7.63;;;18.00;99.90;;;;;;5066241;28;20048;-62
2021/07/25 05:55:30;;;;;;;15.20;8.10;;;18.00;99.90;;;;;;5066902;28;20032;-61
2021/07/25 05:57:56;;;;;;;12.05;6.40;;;18.00;99.90;;;;;;5062497;28;20037;-61
2021/07/25 06:00:22;;;;;;;11.65;6.43;;;18.00;99.90;;;;;;5064258;28;20131;-62
2021/07/25 06:02:57;;;;;;;;;;;18.10;99.90;;;;;;5064015;28;20174;-62
2021/07/25 06:05:24;;;;;;;8.07;5.38;;;18.00;99.90;;;;;;5066961;28;19927;-61
2021/07/25 06:07:50;;;;;;;12.52;6.55;;;18.10;99.90;;;;;;5066157;28;20050;-62
2021/07/25 06:10:16;;;;;;;;;;;18.00;99.90;;;;;;5068034;28;20714;-63
2021/07/25 06:12:42;;;;;;;9.88;5.43;;;18.00;99.90;;;;;;5070694;28;19966;-62
2021/07/25 06:15:08;;;;;;;;;;;18.10;99.90;;;;;;5066759;28;20662;-63
2021/07/25 06:17:34;;;;;;;8.82;5.53;;;18.30;99.90;;;;;;5067181;28;19920;-62
2021/07/25 06:19:59;;;;;;;;;;;18.30;99.90;;;;;;5065800;28;20036;-62
2021/07/25 06:22:25;;;;;;;8.93;5.32;;;18.30;99.90;;;;;;5066317;28;19916;-63
2021/07/25 06:24:50;;;;;;;;;;;18.40;99.90;;;;;;5066636;28;20492;-64
2021/07/25 06:27:16;;;;;;;8.73;5.13;;;18.40;99.90;;;;;;5065586;28;19975;-57
2021/07/25 06:29:41;;;;;;;8.90;6.20;;;18.50;99.90;;;;;;5061801;28;20041;-60
2021/07/25 06:32:08;;;;;;;;;;;18.60;99.90;;;;;;5066189;28;20044;-61
2021/07/25 06:34:34;;;;;;;8.95;5.10;;;18.70;99.90;;;;;;5066776;28;19920;-61
2021/07/25 06:37:00;;;;;;;;;;;18.80;99.90;;;;;;5045233;22;20053;-61
2021/07/25 06:39:25;;;;;;;7.68;4.95;;;18.90;99.90;;;;;;5046433;28;19995;-62
2021/07/25 06:41:51;;;;;;;8.05;5.00;;;18.90;99.90;;;;;;5028566;28;20528;-62
2021/07/25 06:44:16;;;;;;;;;;;18.90;99.90;;;;;;5028071;28;20063;-61
2021/07/25 06:46:42;;;;;;;8.90;5.22;;;18.90;99.90;;;;;;5044985;28;19943;-62
2021/07/25 06:49:07;;;;;;;;;;;18.90;99.90;;;;;;5045960;28;20037;-61
2021/07/25 06:51:33;;;;;;;9.90;4.72;;;18.90;99.90;;;;;;5045995;28;20553;-60
2021/07/25 06:53:58;;;;;;;;;;;18.90;99.90;;;;;;5045852;28;20067;-61
2021/07/25 06:56:24;;;;;;;7.72;4.88;;;18.90;99.90;;;;;;5045167;28;19912;-61
2021/07/25 06:58:49;;;;;;;;;;;18.90;99.90;;;;;;5037356;28;20131;-61
2021/07/25 07:01:16;;;;;;;7.15;4.70;;;18.90;99.90;;;;;;5044906;28;19948;-60
2021/07/25 07:03:42;;;;;;;8.32;4.88;;;18.90;99.90;;;;;;5046135;28;20044;-61
2021/07/25 07:06:08;;;;;;;;;;;19.00;99.90;;;;;;5045980;28;20049;-61
2021/07/25 07:08:33;;;;;;;;;;;19.00;99.90;;;;;;5045699;28;19920;-63
2021/07/25 07:10:59;;;;;;;;;;;19.10;99.90;;;;;;5042968;28;20003;-62
2021/07/25 07:13:24;;;;;;;;;;;19.10;99.90;;;;;;5046296;28;19920;-62
2021/07/25 07:15:50;;;;;;;;;;;19.20;99.90;;;;;;5044805;22;20281;-62
2021/07/25 07:18:16;;;;;;;;;;;19.30;99.90;;;;;;5017593;28;19925;-62
2021/07/25 07:20:42;;;;;;;;;;;19.30;99.90;;;;;;5032694;28;19951;-60
2021/07/25 07:23:09;;;;;;;;;;;19.30;99.90;;;;;;5047995;28;19987;-61
2021/07/25 07:25:36;;;;;;;;;;;19.50;99.90;;;;;;5046796;28;19922;-63
2021/07/25 07:28:02;;;;;;;;;;;19.70;99.90;;;;;;5042910;28;20285;-62
2021/07/25 07:30:29;;;;;;;;;;;19.70;99.90;;;;;;5019316;28;19925;-63
2021/07/25 07:32:54;;;;;;;;;;;20.10;99.90;;;;;;5010912;28;20239;-62
2021/07/25 07:35:23;;;;;;;;;;;20.30;99.90;;;;;;5011347;28;20016;-63
2021/07/25 07:37:49;;;;;;;;;;;20.80;99.90;;;;;;5009984;28;20718;-63
2021/07/25 07:40:16;;;;;;;;;;;21.00;99.60;;;;;;5011041;28;19921;-63
2021/07/25 07:42:41;;;;;;;;;;;21.20;99.90;;;;;;5010819;28;19945;-63
2021/07/25 07:45:07;;;;;;;;;;;21.30;98.30;;;;;;5010400;28;19921;-64
2021/07/25 07:47:33;;;;;;;;;;;21.10;98.10;;;;;;4992239;28;19952;-63
2021/07/25 07:49:58;;;;;;;;;;;21.40;99.50;;;;;;4990750;28;19926;-64
2021/07/25 07:52:24;;;;;;;;;;;21.70;99.20;;;;;;4990063;28;19922;-62
2021/07/25 07:54:49;;;;;;;;;;;21.80;98.40;;;;;;4993308;23;19921;-76
2021/07/25 07:57:15;;;;;;;;;;;22.20;97.80;;;;;;4994292;28;20340;-74
2021/07/25 07:59:40;;;;;;;;;;;23.00;96.10;;;;;;4994177;28;19917;-74
2021/07/25 08:02:08;;;;;;;;;;;24.20;93.90;;;;;;4992090;28;19917;-75
2021/07/25 08:04:34;;;;;;;;;;;25.40;92.20;;;;;;4994179;28;19971;-74
2021/07/25 08:06:59;;;;;;;;;;;25.80;88.80;;;;;;4994358;28;19921;-75
2021/07/25 08:09:25;;;;;;;;;;;26.20;90.00;;;;;;4993946;28;19990;-74
2021/07/25 08:11:52;;;;;;;;;;;25.90;90.30;;;;;;4993042;28;20036;-75
2021/07/25 08:14:20;;;;;;;;;;;25.40;90.40;;;;;;4994335;28;19960;-73
2021/07/25 08:16:47;;;;;;;;;;;24.50;92.20;;;;;;4994882;28;19921;-76
2021/07/25 08:19:14;;;;;;;;;;;24.40;91.80;;;;;;4996511;28;20484;-75
2021/07/25 08:21:43;;;;;;;;;;;24.30;93.10;;;;;;4996224;28;20007;-77
2021/07/25 08:24:09;;;;;;;;;;;23.90;93.90;;;;;;5013452;28;19928;-72
2021/07/25 08:26:36;;;;;;;;;;;23.70;93.50;;;;;;4994706;28;19925;-72
2021/07/25 08:29:02;;;;;;;;;;;24.10;92.30;;;;;;5013005;28;19921;-72
2021/07/25 08:31:28;;;;;;;;;;;23.80;92.30;;;;;;4993542;28;19996;-72
2021/07/25 08:33:54;;;;;;;;;;;23.80;92.40;;;;;;5013099;28;20103;-72
2021/07/25 08:36:22;;;;;;;;;;;23.40;93.60;;;;;;4996013;28;19928;-71
2021/07/25 08:38:48;;;;;;;;;;;23.20;94.80;;;;;;4996403;28;19917;-69
2021/07/25 08:41:32;;;;;;;;;;;22.70;95.20;;;;;;4997152;28;19972;-71
2021/07/25 08:44:11;;;;;;;;;;;22.50;95.80;;;;;;5028850;28;19983;-73
2021/07/25 08:46:37;;;;;;;;;;;22.60;95.10;;;;;;5012401;28;20004;-72
2021/07/25 08:49:04;;;;;;;;;;;23.20;94.90;;;;;;4994899;28;19922;-72
2021/07/25 08:51:38;;;;;;;;;;;23.30;94.00;;;;;;4990970;28;19966;-75
2021/07/25 08:54:06;;;;;;;;;;;23.10;94.30;;;;;;4984994;28;19925;-75
2021/07/25 08:56:33;;;;;;;;;;;23.00;94.50;;;;;;5016992;28;19921;-71
2021/07/25 08:59:02;;;;;;;;;;;23.60;94.90;;;;;;4988642;28;19932;-79
2021/07/25 09:02:08;;;;;;;;;;;24.00;92.60;;;;;;4989774;28;19917;-71
2021/07/25 09:04:35;;;;;;;;;;;23.90;92.90;;;;;;5019929;28;19921;-76
2021/07/25 09:07:02;;;;;;;;;;;23.30;94.00;;;;;;4993246;28;20173;-76
2021/07/25 09:09:28;;;;;;;;;;;23.10;94.60;;;;;;4993182;28;20469;-78
2021/07/25 09:11:54;;;;;;;;;;;22.90;95.10;;;;;;4992529;28;20402;-75
2021/07/25 09:14:20;;;;;;;;;;;22.60;95.00;;;;;;4993200;28;19917;-74
2021/07/25 09:16:46;;;;;;;;;;;22.40;95.20;;;;;;5000947;28;19925;-74
2021/07/25 09:19:11;;;;;;;;;;;22.20;95.60;;;;;;4989843;28;19980;-73
2021/07/25 09:21:42;;;;;;;;;;;22.40;97.60;;;;;;4990210;28;19917;-74
2021/07/25 09:24:13;;;;;;;;;;;22.40;97.50;;;;;;5011953;28;19950;-74
2021/07/25 09:26:54;;;;;;;;;;;22.10;96.90;;;;;;5010947;28;19918;-70
2021/07/25 09:29:22;;;;;;;;;;;22.10;97.30;;;;;;5025900;28;19925;-70
2021/07/25 09:31:48;;;;;;;;;;;22.40;98.60;;;;;;5008983;28;19953;-71
2021/07/25 09:34:32;;;;;;;;;;;22.40;97.50;;;;;;4993174;28;19976;-75
2021/07/25 09:37:14;;;;;;;;;;;22.30;98.10;;;;;;5010585;28;19921;-73
2021/07/25 09:39:40;;;;;;;;;;;22.20;97.10;;;;;;5024274;28;20322;-76
2021/07/25 09:42:08;;;;;;;;;;;22.10;97.40;;;;;;4991568;28;20390;-76
2021/07/25 09:44:50;;;;;;;;;;;22.00;98.00;;;;;;4992381;28;20432;-72
2021/07/25 09:47:28;;;;;;;;;;;21.90;97.60;;;;;;4990314;28;20083;-72
2021/07/25 09:49:54;;;;;;;;;;;21.90;98.90;;;;;;4987778;28;20441;-75
2021/07/25 09:52:30;;;;;;;;;;;21.80;98.70;;;;;;4991827;28;20051;-76
2021/07/25 09:54:56;;;;;;;;;;;21.80;98.40;;;;;;4991537;28;19960;-75
2021/07/25 09:57:24;;;;;;;;;;;21.70;98.50;;;;;;4992427;28;19929;-76
2021/07/25 09:59:50;;;;;;;;;;;21.70;98.60;;;;;;4993037;28;19924;-76
2021/07/25 10:02:28;;;;;;;;;;;21.60;99.10;;;;;;5009178;28;19928;-74
2021/07/25 10:05:14;;;;;;;;;;;21.70;99.10;;;;;;5034773;28;19929;-74
2021/07/25 10:07:42;;;;;;;;;;;21.70;99.80;;;;;;4998637;28;19941;-75
2021/07/25 10:10:09;;;;;;;;;;;21.80;99.90;;;;;;4992735;28;19922;-75
2021/07/25 10:12:35;;;;;;;;;;;21.80;99.40;;;;;;5008932;28;19992;-74
2021/07/25 10:15:02;;;;;;;;;;;21.80;99.10;;;;;;4992429;28;19917;-74
2021/07/25 10:17:32;;;;;;;;;;;21.90;99.80;;;;;;4991729;28;20711;-71
2021/07/25 10:19:59;;;;;;;;;;;22.10;99.40;;;;;;4994830;28;20024;-73
2021/07/25 10:22:27;;;;;;;;;;;22.30;99.10;;;;;;4975171;28;20055;-71
2021/07/25 10:24:54;;;;;;;;;;;22.60;98.40;;;;;;4991873;28;19917;-72
2021/07/25 10:27:21;;;;;;;;;;;22.80;97.60;;;;;;5025198;28;19925;-76
2021/07/25 10:29:47;;;;;;;;;;;22.90;97.10;;;;;;4992431;28;19947;-71
2021/07/25 10:32:17;;;;;;;;;;;23.00;97.80;;;;;;4990683;28;19921;-72
2021/07/25 10:34:43;;;;;;;;;;;22.90;96.70;;;;;;4993427;28;19925;-73
2021/07/25 10:37:12;;;;;;;;;;;22.60;97.70;;;;;;4993480;28;19917;-73
2021/07/25 10:39:41;;;;;;;;;;;22.70;98.20;;;;;;4992806;28;20262;-73
2021/07/25 10:42:07;;;;;;;;;;;22.50;97.80;;;;;;4991482;28;19940;-73
2021/07/25 10:44:33;;;;;;;;;;;22.40;98.00;;;;;;4992539;28;19917;-73
2021/07/25 10:47:19;;;;;;;;;;;22.30;98.10;;;;;;4991123;28;19921;-73
2021/07/25 10:49:45;;;;;;;;;;;22.10;98.40;;;;;;4991889;28;20374;-73
2021/07/25 10:52:11;;;;;;;;;;;21.90;98.40;;;;;;4990811;28;19925;-73
2021/07/25 10:54:47;;;;;;;;;;;21.80;98.60;;;;;;4991603;28;19921;-72
2021/07/25 10:57:13;;;;;;;;;;;21.80;99.40;;;;;;4991398;28;19917;-72
2021/07/25 10:59:40;;;;;;;;;;;21.70;99.00;;;;;;5009370;28;19925;-72
2021/07/25 11:02:09;;;;;;;;;;;21.60;99.90;;;;;;5006291;28;19917;-75
2021/07/25 11:04:50;;;;;;;;;;;21.60;99.80;;;;;;5008305;28;19921;-73
2021/07/25 11:07:23;;;;;;;;;;;21.50;99.80;;;;;;5009967;28;19917;-75
2021/07/25 11:09:55;;;;;;;;;;;21.40;99.90;;;;;;5024721;28;20020;-74
2021/07/25 11:12:21;;;;;;;;;;;21.20;99.90;;;;;;5007519;28;20004;-75
2021/07/25 11:14:56;;;;;;;;;;;21.00;99.90;;;;;;4992258;28;19921;-68
2021/07/25 11:17:44;;;;;;;;;;;20.80;99.90;;;;;;5022990;28;20020;-68
2021/07/25 11:20:29;;;;;;;;;;;20.80;99.90;;;;;;4990388;28;19917;-68
2021/07/25 11:22:57;;;;;;;;;;;20.70;99.90;;;;;;5022744;28;19921;-73
2021/07/25 11:25:37;;;;;;;;;;;20.40;99.90;;;;;;4991787;28;19928;-68
2021/07/25 11:28:03;;;;;;;;;;;20.20;99.90;;;;;;5005251;28;19979;-68
2021/07/25 11:30:49;;;;;;;;;;;20.00;99.90;;;;;;4988676;28;19952;-68
2021/07/25 11:33:34;;;;;;;;;;;20.00;99.90;;;;;;5022127;28;20641;-68
2021/07/25 11:36:00;;;;;;;;;;;19.70;99.90;;;;;;5023446;28;20436;-69
2021/07/25 11:38:26;;;;;;;;;;;19.50;99.90;;;;;;4989573;28;19929;-68
2021/07/25 11:40:53;;;;;;;;;;;19.40;99.90;;;;;;4990549;28;19917;-68
2021/07/25 11:43:19;;;;;;;;;;;19.40;99.90;;;;;;5007047;28;19928;-68
2021/07/25 11:45:45;;;;;;;;;;;19.40;99.90;;;;;;4989693;28;19925;-68
2021/07/25 11:48:20;;;;;;;;;;;19.40;99.90;;;;;;4989701;28;19976;-68
2021/07/25 11:50:46;;;;;;;;;;;19.30;99.90;;;;;;4990229;28;19923;-68
2021/07/25 11:53:12;;;;;;;;;;;19.20;99.90;;;;;;4988567;28;19917;-68
2021/07/25 11:55:38;;;;;;;;;;;19.10;99.90;;;;;;4990002;28;20373;-69
2021/07/25 11:58:14;;;;;;;;;;;19.10;99.90;;;;;;4989656;28;19968;-69
2021/07/25 12:00:40;;;;;;;;;;;19.10;99.90;;;;;;4989522;28;20430;-68
2021/07/25 12:03:05;;;;;;;;;;;19.20;99.90;;;;;;5006331;28;20000;-68
2021/07/25 12:05:31;;;;;;;;;;;19.30;99.90;;;;;;4990848;28;20028;-68
2021/07/25 12:08:18;;;;;;;;;;;19.30;99.90;;;;;;4990898;28;20366;-67
2021/07/25 12:10:43;;;;;;;;;;;19.30;99.90;;;;;;4990651;28;19932;-68
2021/07/25 12:13:13;;;;;;;;;;;19.10;99.90;;;;;;5007789;28;20008;-69
2021/07/25 12:15:40;;;;;;;;;;;19.10;99.90;;;;;;4996107;28;20375;-68
2021/07/25 12:18:08;;;;;;;;;;;19.10;99.90;;;;;;4993128;28;19924;-68
2021/07/25 12:20:35;;;;;;;;;;;19.20;99.90;;;;;;4993911;28;19939;-67
2021/07/25 12:23:06;;;;;;;;;;;19.10;99.90;;;;;;4992645;28;19921;-68
2021/07/25 12:25:33;;;;;;;;;;;19.10;99.90;;;;;;4993493;28;19921;-68
2021/07/25 12:28:09;;;;;;;;;;;19.20;99.90;;;;;;4993247;28;19918;-68
2021/07/25 12:30:54;;;;;;;;;;;19.40;99.90;;;;;;4993420;28;20020;-67
2021/07/25 12:33:24;;;;;;;;;;;19.70;99.90;;;;;;4992981;28;20434;-68
2021/07/25 12:35:50;;;;;;;;;;;20.10;99.90;;;;;;4994199;28;19924;-68
2021/07/25 12:38:20;;;;;;;;;;;20.30;99.90;;;;;;4994019;28;19928;-67
2021/07/25 12:40:50;;;;;;;;;;;20.30;99.90;;;;;;4992078;28;20025;-67
2021/07/25 12:43:16;;;;;;;;;;;20.20;99.90;;;;;;4992674;28;19917;-67
2021/07/25 12:45:42;;;;;;;;;;;20.20;99.90;;;;;;5010142;28;19925;-67
2021/07/25 12:48:27;;;;;;;;;;;20.10;99.90;;;;;;4992721;28;19922;-67
2021/07/25 12:53:50;;;;;;;;;;;19.80;99.90;;;;;;5011759;28;20641;-67
2021/07/25 12:56:19;;;;;;;;;;;19.70;99.90;;;;;;5026437;28;19917;-68
2021/07/25 12:58:47;;;;;;;;;;;19.60;99.90;;;;;;4993280;28;19921;-68
2021/07/25 13:03:53;;;;;;;;;;;19.20;99.90;;;;;;5010661;28;19923;-67
2021/07/25 13:06:25;;;;;;;;;;;19.20;99.90;;;;;;4992611;28;19967;-68
2021/07/25 13:08:53;;;;;;;;;;;19.30;99.90;;;;;;5025622;28;19972;-68
2021/07/25 13:11:19;;;;;;;;;;;19.30;99.90;;;;;;4992775;28;20362;-67
2021/07/25 13:13:46;;;;;;;;;;;19.20;99.90;;;;;;5010363;28;19925;-66
2021/07/25 13:16:12;;;;;;;;;;;19.30;99.90;;;;;;4991260;28;19922;-66
2021/07/25 13:18:39;;;;;;;;;;;19.30;99.90;;;;;;4991630;28;19918;-67
2021/07/25 13:21:05;;;;;;;;;;;19.20;99.90;;;;;;4991421;28;19928;-67
2021/07/25 13:23:31;;;;;;;;;;;19.20;99.90;;;;;;4989026;28;19929;-68
2021/07/25 13:25:58;;;;;;;;;;;19.00;99.90;;;;;;5009812;28;19928;-68
2021/07/25 13:28:23;;;;;;;;;;;18.90;99.90;;;;;;4991618;28;19922;-68
2021/07/25 13:30:49;;;;;;;;;;;18.70;99.90;;;;;;4992261;28;19917;-68
2021/07/25 13:33:15;;;;;;;;;;;18.60;99.90;;;;;;4992528;28;19957;-69
2021/07/25 13:35:43;;;;;;;;;;;18.50;99.90;;;;;;4991198;28;19921;-68
2021/07/25 13:38:08;;;;;;;;;;;18.30;99.90;;;;;;5008745;28;19921;-68
2021/07/25 13:40:34;;;;;;;;;;;18.30;99.90;;;;;;4998843;28;19928;-71
2021/07/25 13:43:00;;;;;;;;;;;18.30;99.90;;;;;;5024587;28;19972;-68
2021/07/25 13:45:26;;;;;;;;;;;18.30;99.90;;;;;;4992553;28;19932;-69
2021/07/25 13:47:53;;;;;;;;;;;18.20;99.90;;;;;;4992753;28;19925;-68